»·PEaware :: SWA464 KOAK-KBUR

SWA464 :: KOAK-KBUR

FLIGHT INFORMATION

Flight Status: Arrived
Operator:
Southwest Airlines
More flights by this operator :: More flights under this callsign
Pilot: Steve F. (26981)
Aircraft: BOEING 737-900
(B739)
More flights by this aircraft type
Origin: KOAK Metro Oakland Intl
United States
Destination: KBUR Bob Hope-Burbank
United States
More flights between these airports :: More routes between these airports
Route: CNDEL5 KTINA CISKO RDHOT ROKKR2
File this flight plan on PilotEdge
Remarks:
Altitude:
(Current/Filed)
29,000ft
Speed:
(Current/Filed)
430kts
Departed: 26-Jun-23 08:14 AM
Arrived: 26-Jun-23 09:07 AM
Distance/Time
Traveled:
283nm/0:53
Distance/Time
To Go:
Arrived

Flight Plot

Page will automatically refresh every two minutes.

Flight plan parsing failed; only flown route is shown


Map Options




Map Legend


Flown Route
Filed Route
Departure Airport
Arrival Airport
Navaid (VOR, NDB)
Fix

Horizontal Profiles

Position Reports

Time Latitude Longitude Heading Altitude Ground
Speed
26-Jun-23 07:53 37.710764 -122.215562 307 14ft 0kts
26-Jun-23 07:54 37.710764 -122.215562 307 14ft 0kts
26-Jun-23 07:55 37.710764 -122.215562 307 14ft 0kts
26-Jun-23 07:56 37.710764 -122.215562 307 14ft 0kts
26-Jun-23 07:57 37.710764 -122.215562 307 14ft 0kts
26-Jun-23 07:58 37.710764 -122.215562 307 14ft 0kts
26-Jun-23 07:59 37.710764 -122.215562 307 14ft 0kts
26-Jun-23 08:00 37.710764 -122.215562 307 14ft 0kts
26-Jun-23 08:01 37.710764 -122.215562 307 14ft 0kts
26-Jun-23 08:02 37.710764 -122.215562 307 14ft 0kts
26-Jun-23 08:03 37.710764 -122.215562 307 14ft 0kts
26-Jun-23 08:04 37.710764 -122.215562 307 14ft 0kts
26-Jun-23 08:05 37.710764 -122.215562 307 14ft 0kts
26-Jun-23 08:06 37.710454 -122.214959 259 14ft 2kts
26-Jun-23 08:07 37.710539 -122.214843 202 14ft 0kts
26-Jun-23 08:08 37.710539 -122.214843 202 14ft 0kts
26-Jun-23 08:09 37.709999 -122.215179 202 14ft 11kts
26-Jun-23 08:10 37.706921 -122.217842 217 14ft 14kts
26-Jun-23 08:11 37.704486 -122.214910 130 14ft 15kts
26-Jun-23 08:12 37.702096 -122.215137 309 14ft 18kts
26-Jun-23 08:13 37.725678 -122.249484 311 956ft 192kts
26-Jun-23 08:14 37.761344 -122.303063 306 2198ft 200kts
26-Jun-23 08:15 37.796603 -122.366023 286 3977ft 240kts
26-Jun-23 08:16 37.751993 -122.418546 193 6101ft 264kts
26-Jun-23 08:17 37.676076 -122.434542 191 8773ft 288kts
26-Jun-23 08:18 37.595643 -122.451890 191 12025ft 298kts
26-Jun-23 08:19 37.505134 -122.467971 176 13456ft 370kts
26-Jun-23 08:20 37.415884 -122.392453 133 15428ft 409kts
26-Jun-23 08:21 37.334326 -122.288454 136 17827ft 426kts
26-Jun-23 08:22 37.247875 -122.184088 137 20024ft 439kts
26-Jun-23 08:23 37.159082 -122.076919 137 21946ft 451kts
26-Jun-23 08:24 37.067324 -121.967153 138 23636ft 460kts
26-Jun-23 08:25 36.983272 -121.867165 138 24944ft 468kts
26-Jun-23 08:26 36.887877 -121.754044 139 26246ft 475kts
26-Jun-23 08:27 36.791737 -121.640444 139 27484ft 478kts
26-Jun-23 08:28 36.697166 -121.529109 140 28987ft 472kts
26-Jun-23 08:29 36.601393 -121.416468 140 29139ft 471kts
26-Jun-23 08:30 36.506211 -121.305165 141 29133ft 470kts
26-Jun-23 08:31 36.410814 -121.194303 141 29129ft 470kts
26-Jun-23 08:32 36.312348 -121.088706 146 29121ft 467kts
26-Jun-23 08:33 36.211634 -120.986758 146 29112ft 466kts
26-Jun-23 08:34 36.116533 -120.889959 146 29107ft 466kts
26-Jun-23 08:35 36.017605 -120.788753 147 29106ft 463kts
26-Jun-23 08:36 35.918688 -120.688069 149 29107ft 460kts
26-Jun-23 08:37 35.820027 -120.588395 150 29109ft 459kts
26-Jun-23 08:38 35.721102 -120.488916 150 29109ft 458kts
26-Jun-23 08:39 35.622528 -120.390071 150 29106ft 458kts
26-Jun-23 08:40 35.524543 -120.289382 149 29103ft 460kts
26-Jun-23 08:41 35.428551 -120.189444 149 29101ft 458kts
26-Jun-23 08:42 35.331152 -120.088052 148 28602ft 461kts
26-Jun-23 08:43 35.234327 -119.987488 148 26775ft 451kts
26-Jun-23 08:44 35.144693 -119.895149 147 24964ft 435kts
26-Jun-23 08:45 35.055241 -119.802899 146 23173ft 419kts
26-Jun-23 08:46 34.969553 -119.715147 146 21767ft 388kts
26-Jun-23 08:47 34.887192 -119.630893 144 20450ft 385kts
26-Jun-23 08:48 34.818114 -119.533905 134 18572ft 388kts
26-Jun-23 08:49 34.751447 -119.433724 133 16814ft 371kts
26-Jun-23 08:50 34.690010 -119.339897 132 15305ft 352kts
26-Jun-23 08:51 34.631595 -119.246554 124 13809ft 344kts
26-Jun-23 08:52 34.584463 -119.149618 123 12315ft 329kts
26-Jun-23 08:53 34.534392 -119.060977 139 10913ft 309kts
26-Jun-23 08:54 34.467943 -118.999200 144 9607ft 294kts
26-Jun-23 08:55 34.405075 -118.939264 141 8596ft 284kts
26-Jun-23 08:56 34.345640 -118.877752 137 7651ft 279kts
26-Jun-23 08:57 34.289251 -118.815546 138 6990ft 259kts
26-Jun-23 08:58 34.251202 -118.749442 112 6399ft 238kts
26-Jun-23 08:59 34.225153 -118.677001 114 5097ft 226kts
26-Jun-23 09:00 34.202059 -118.612557 103 4339ft 189kts
26-Jun-23 09:01 34.200411 -118.556198 90 3716ft 154kts
26-Jun-23 09:02 34.199764 -118.505661 91 2921ft 150kts
26-Jun-23 09:03 34.199080 -118.455426 90 2143ft 149kts
26-Jun-23 09:04 34.198402 -118.405322 90 1347ft 147kts
26-Jun-23 09:05 34.197765 -118.358853 91 729ft 60kts
26-Jun-23 09:06 34.196951 -118.352837 179 729ft 3kts
26-Jun-23 09:07 34.196836 -118.352836 180 729ft 0kts
26-Jun-23 09:08 34.196836 -118.352836 180 729ft 0kts
26-Jun-23 09:09 34.196836 -118.352836 180 729ft 0kts
26-Jun-23 09:10 34.196836 -118.352836 180 729ft 0kts
26-Jun-23 09:11 34.196836 -118.352836 180 729ft 0kts
26-Jun-23 09:12 34.196836 -118.352836 180 729ft 0kts
26-Jun-23 09:13 34.196836 -118.352836 180 729ft 0kts
26-Jun-23 09:14 34.196836 -118.352836 180 729ft 0kts
26-Jun-23 09:15 34.196836 -118.352836 180 729ft 0kts
26-Jun-23 09:16 34.196836 -118.352836 180 729ft 0kts
26-Jun-23 09:17 34.196836 -118.352836 180 729ft 0kts
26-Jun-23 09:18 34.196836 -118.352836 180 729ft 0kts
26-Jun-23 09:19 34.196836 -118.352836 180 729ft 0kts
26-Jun-23 09:20 34.196836 -118.352836 180 729ft 0kts

Navigation Log

Ident Type
Flight plan parsing failed, navigation log unavailable